< < Back
Terminal Aerodrome Forecast


Current Version              Previous Versions:   1  2  3  4  5  6  7  8  9  

Terminal Aerodrome Forecast

068
FTUS42 KGSP 312320
TAFGSP
TAF
KGSP 312320Z 0100/0124 01003KT P6SM FEW070 SCT250
     FM011200 36005KT P6SM FEW250=

Latest METAR

903
SAUS70 KWBC 010800 RRR
MTRGSP
METAR KGSP 010753Z AUTO 06005KT 10SM SCT070 24/16 A2996 RMK AO2 SLP131
T02390156


USA.gov is the U.S. government's official web portal to all federal, state and local government web resources and services.